Time;durP1;ratioP1;P1;durP2;ratioP2;P2;SDS_P1;SDS_P2;PMS_P1;PMS_P2;Temp;Humidity;BMP_temperature;BMP_pressure;BME280_temperature;BME280_humidity;BME280_pressure;Samples;Min_cycle;Max_cycle;Signal;HPM_P1;HPM_P2
2021/09/07 00:00:22;;;;;;;14.10;9.88;;;;;;;16.93;97.26;101077.63;4968845;28;20042;-70
2021/09/07 00:03:06;;;;;;;12.07;9.93;;;;;;;16.90;97.47;101073.41;4968774;28;20054;-68
2021/09/07 00:05:50;;;;;;;11.88;10.10;;;;;;;16.91;98.03;101085.03;4928098;29;20050;-71
2021/09/07 00:08:36;;;;;;;14.00;10.43;;;;;;;16.90;97.90;101073.41;4968364;28;20426;-70
2021/09/07 00:11:21;;;;;;;13.25;9.90;;;;;;;16.91;98.10;101069.72;4968642;28;20050;-70
2021/09/07 00:14:05;;;;;;;13.38;9.68;;;;;;;16.90;98.12;101068.03;4968707;28;20054;-70
2021/09/07 00:16:49;;;;;;;13.13;10.57;;;;;;;16.90;98.27;101068.03;4953770;28;20046;-71
2021/09/07 00:19:33;;;;;;;14.48;9.77;;;;;;;16.87;98.16;101073.75;4941267;29;20210;-70
2021/09/07 00:22:17;;;;;;;13.30;10.70;;;;;;;16.87;98.70;101072.94;4968332;28;20090;-71
2021/09/07 00:25:02;;;;;;;16.42;10.77;;;;;;;16.86;99.14;101061.28;4968335;28;20057;-70
2021/09/07 00:27:47;;;;;;;13.77;9.90;;;;;;;16.84;99.28;101063.31;4954522;28;20102;-71
2021/09/07 00:30:31;;;;;;;14.43;10.35;;;;;;;16.81;99.57;101052.88;4940934;29;20087;-71
2021/09/07 00:33:16;;;;;;;11.95;10.15;;;;;;;16.77;100.00;101064.97;4967930;28;20050;-71
2021/09/07 00:35:59;;;;;;;12.77;10.93;;;;;;;16.73;100.00;101058.25;4968326;28;20133;-71
2021/09/07 00:38:43;;;;;;;12.48;10.18;;;;;;;16.68;100.00;101055.19;4954355;29;20177;-71
2021/09/07 00:41:27;;;;;;;15.13;10.15;;;;;;;16.65;100.00;101052.84;4955259;29;20054;-71
2021/09/07 00:44:16;;;;;;;13.57;10.68;;;;;;;16.60;100.00;101052.47;4968117;28;20054;-71
2021/09/07 00:47:02;;;;;;;13.57;9.68;;;;;;;16.58;100.00;101057.19;4940724;29;20514;-71
2021/09/07 00:49:46;;;;;;;13.52;9.93;;;;;;;16.52;100.00;101055.16;4940894;29;20126;-70
2021/09/07 00:52:30;;;;;;;12.82;10.35;;;;;;;16.50;100.00;101059.84;4968097;28;20187;-71
2021/09/07 00:55:14;;;;;;;11.80;10.00;;;;;;;16.46;100.00;101053.09;4967762;28;20054;-71
2021/09/07 00:57:59;;;;;;;14.48;10.43;;;;;;;16.42;100.00;101054.44;4940527;29;20613;-71
2021/09/07 01:00:44;;;;;;;12.48;9.88;;;;;;;16.37;100.00;101062.16;4967969;28;20166;-71
2021/09/07 01:03:27;;;;;;;11.93;10.23;;;;;;;16.31;100.00;101062.78;4940703;29;20046;-72
2021/09/07 01:06:11;;;;;;;13.50;10.50;;;;;;;16.25;100.00;101060.72;4954906;28;20058;-71
2021/09/07 01:08:56;;;;;;;14.85;10.82;;;;;;;16.21;100.00;101059.38;4967847;28;20046;-70
2021/09/07 01:11:40;;;;;;;12.35;9.98;;;;;;;16.18;100.00;101061.53;4940690;29;20501;-71
2021/09/07 01:14:36;;;;;;;14.45;10.52;;;;;;;16.10;100.00;101062.34;4940681;29;20519;-71
2021/09/07 01:17:20;;;;;;;14.95;10.60;;;;;;;16.04;100.00;101056.75;4940334;29;20042;-70
2021/09/07 01:20:04;;;;;;;11.60;9.85;;;;;;;15.99;100.00;101059.91;4967384;28;20053;-71
2021/09/07 01:22:48;;;;;;;15.35;11.35;;;;;;;15.94;100.00;101061.38;4967516;28;20135;-71
2021/09/07 01:25:32;;;;;;;14.25;10.88;;;;;;;15.89;100.00;101053.81;4968030;28;20109;-70
2021/09/07 01:28:18;;;;;;;15.45;10.65;;;;;;;15.86;100.00;101053.28;4968093;28;20054;-71
2021/09/07 01:31:03;;;;;;;12.55;10.25;;;;;;;15.80;100.00;101060.16;4958617;29;20054;-71
2021/09/07 01:33:47;;;;;;;14.40;11.30;;;;;;;15.74;100.00;101055.41;4958907;29;20054;-71
2021/09/07 01:36:32;;;;;;;13.75;11.02;;;;;;;15.69;100.00;101052.34;4958457;28;20561;-71
2021/09/07 01:39:16;;;;;;;12.57;10.55;;;;;;;15.65;100.00;101059.03;4971276;28;20082;-71
2021/09/07 01:42:00;;;;;;;15.10;10.38;;;;;;;15.58;100.00;101055.28;4958878;29;20066;-70
2021/09/07 01:44:44;;;;;;;17.88;10.60;;;;;;;15.55;100.00;101051.22;4971002;28;20102;-71
2021/09/07 01:47:28;;;;;;;14.23;10.85;;;;;;;15.49;100.00;101051.88;4944153;29;20058;-71
2021/09/07 01:50:12;;;;;;;14.32;10.63;;;;;;;15.44;100.00;101054.16;4958247;29;20083;-71
2021/09/07 01:52:56;;;;;;;15.90;10.57;;;;;;;15.43;100.00;101049.78;4971183;28;20119;-71
2021/09/07 01:55:40;;;;;;;13.65;11.75;;;;;;;15.42;100.00;101048.13;4943853;29;20098;-71
2021/09/07 01:58:24;;;;;;;17.27;11.35;;;;;;;15.42;100.00;101050.78;4970561;28;20049;-71
2021/09/07 02:01:08;;;;;;;12.48;11.07;;;;;;;15.41;100.00;101052.63;4970732;28;20569;-71
2021/09/07 02:03:52;;;;;;;15.38;11.23;;;;;;;15.43;100.00;101047.09;4958291;29;20054;-71
2021/09/07 02:06:36;;;;;;;14.40;10.85;;;;;;;15.44;100.00;101046.09;4970769;28;20117;-72
2021/09/07 02:09:20;;;;;;;14.85;11.25;;;;;;;15.44;100.00;101043.41;4970858;28;20163;-71
2021/09/07 02:12:06;;;;;;;15.65;10.85;;;;;;;15.44;100.00;101051.47;4957841;29;20062;-71
2021/09/07 02:14:50;;;;;;;12.73;10.50;;;;;;;15.41;100.00;101044.56;4970614;28;20106;-71
2021/09/07 02:17:35;;;;;;;15.10;10.68;;;;;;;15.37;100.00;101053.09;4970283;28;20062;-71
2021/09/07 02:20:18;;;;;;;14.38;11.05;;;;;;;15.32;100.00;101050.88;4929951;29;20122;-70
2021/09/07 02:23:06;;;;;;;16.90;11.18;;;;;;;15.26;100.00;101054.16;4970606;28;20058;-71
2021/09/07 02:25:50;;;;;;;14.63;10.68;;;;;;;15.22;100.00;101055.44;4943648;29;20058;-71
2021/09/07 02:28:34;;;;;;;14.43;10.77;;;;;;;15.19;100.00;101053.09;4957524;28;20114;-71
2021/09/07 02:31:18;;;;;;;13.45;10.68;;;;;;;15.17;100.00;101054.22;4957840;29;20137;-71
2021/09/07 02:34:01;;;;;;;12.88;11.10;;;;;;;15.16;100.00;101047.19;4970201;28;20053;-71
2021/09/07 02:36:45;;;;;;;12.75;10.43;;;;;;;15.14;100.00;101054.56;4957818;28;20118;-71
2021/09/07 02:39:29;;;;;;;14.05;11.45;;;;;;;15.13;100.00;101053.72;4969854;28;20098;-71
2021/09/07 02:42:14;;;;;;;17.65;12.13;;;;;;;15.15;100.00;101056.25;4943092;29;20125;-71
2021/09/07 02:44:58;;;;;;;15.15;11.77;;;;;;;15.13;100.00;101042.97;4957550;29;20065;-71
2021/09/07 02:47:42;;;;;;;15.40;11.30;;;;;;;15.11;100.00;101042.28;4969939;28;20053;-71
2021/09/07 02:50:25;;;;;;;15.95;11.45;;;;;;;15.10;100.00;101039.75;4970019;28;20054;-71
2021/09/07 02:53:09;;;;;;;12.77;9.90;;;;;;;15.06;100.00;101044.59;4956447;29;20074;-70
2021/09/07 02:55:53;;;;;;;13.60;11.13;;;;;;;15.04;100.00;101041.22;4970025;28;20097;-71
2021/09/07 02:58:37;;;;;;;15.40;11.32;;;;;;;15.04;100.00;101040.38;4942566;29;20045;-71
2021/09/07 03:01:21;;;;;;;17.27;11.90;;;;;;;15.01;100.00;101040.69;4957016;29;20070;-71
2021/09/07 03:04:05;;;;;;;13.88;10.93;;;;;;;14.99;100.00;101046.19;4957179;29;20470;-71
2021/09/07 03:06:49;;;;;;;14.60;10.57;;;;;;;14.98;100.00;101044.50;4969692;28;20426;-70
2021/09/07 03:09:33;;;;;;;16.52;10.52;;;;;;;14.97;100.00;101042.81;4969483;28;20054;-71
2021/09/07 03:12:16;;;;;;;16.63;10.88;;;;;;;14.93;100.00;101036.09;4942213;29;20093;-71
2021/09/07 03:15:00;;;;;;;11.63;10.43;;;;;;;14.91;100.00;101034.53;4969378;28;20426;-71
2021/09/07 03:17:44;;;;;;;13.98;10.70;;;;;;;14.88;100.00;101029.50;5011164;22;20085;-65
2021/09/07 03:20:28;;;;;;;12.80;10.57;;;;;;;14.86;100.00;101028.78;4995645;28;20050;-64
2021/09/07 03:23:12;;;;;;;14.75;11.43;;;;;;;14.85;100.00;101038.69;4994591;28;20064;-66
2021/09/07 03:25:56;;;;;;;16.30;11.63;;;;;;;14.85;100.00;101037.81;4966847;28;20072;-65
2021/09/07 03:28:40;;;;;;;14.02;10.75;;;;;;;14.83;100.00;101029.94;4989904;28;20527;-66
2021/09/07 03:31:25;;;;;;;13.70;10.80;;;;;;;14.83;100.00;101035.31;4995370;28;20061;-65
2021/09/07 03:34:09;;;;;;;15.55;10.40;;;;;;;14.83;100.00;101027.25;4994276;28;20421;-66
2021/09/07 03:36:52;;;;;;;14.52;11.55;;;;;;;14.80;100.00;101026.72;4995200;28;20045;-66
2021/09/07 03:39:38;;;;;;;14.48;11.77;;;;;;;14.81;100.00;101020.34;4980516;28;20498;-64
2021/09/07 03:42:22;;;;;;;13.98;11.02;;;;;;;14.80;100.00;101014.13;4994387;28;20120;-66
2021/09/07 03:45:08;;;;;;;14.70;11.50;;;;;;;14.81;100.00;101014.97;4980410;28;20049;-65
2021/09/07 03:47:52;;;;;;;17.27;12.23;;;;;;;14.82;100.00;101013.97;4995162;28;20049;-66
2021/09/07 03:50:36;;;;;;;13.55;10.82;;;;;;;14.81;100.00;101014.97;4995001;28;20076;-65
2021/09/07 03:53:20;;;;;;;14.75;10.77;;;;;;;14.78;100.00;101017.97;4980278;28;20057;-67
2021/09/07 03:56:04;;;;;;;15.70;11.80;;;;;;;14.76;100.00;101026.19;4994770;28;20053;-66
2021/09/07 03:58:48;;;;;;;15.52;11.57;;;;;;;14.73;100.00;101023.81;4993533;28;20166;-67
2021/09/07 04:01:33;;;;;;;15.68;12.88;;;;;;;14.74;100.00;101032.69;4994535;28;20512;-65
2021/09/07 04:04:17;;;;;;;16.38;12.18;;;;;;;14.75;100.00;101039.75;4994819;28;20563;-66
2021/09/07 04:07:01;;;;;;;17.23;12.75;;;;;;;14.72;100.00;101029.31;4980221;28;20056;-65
2021/09/07 04:09:45;;;;;;;18.27;12.70;;;;;;;14.74;100.00;101024.63;4979664;28;20045;-66
2021/09/07 04:12:28;;;;;;;16.55;12.32;;;;;;;14.73;100.00;101028.31;4993655;28;20057;-66
2021/09/07 04:15:12;;;;;;;16.38;12.63;;;;;;;14.73;100.00;101023.81;4993557;28;20053;-65
2021/09/07 04:17:56;;;;;;;14.40;11.65;;;;;;;14.72;100.00;101022.13;4993251;28;20049;-65
2021/09/07 04:20:40;;;;;;;15.98;11.70;;;;;;;14.73;100.00;101022.94;4993493;28;20165;-66
2021/09/07 04:23:24;;;;;;;16.27;12.77;;;;;;;14.72;100.00;101029.31;4993728;28;20116;-66
2021/09/07 04:26:08;;;;;;;17.30;12.40;;;;;;;14.74;100.00;101030.84;4994141;28;20414;-65
2021/09/07 04:28:52;;;;;;;17.25;11.88;;;;;;;14.75;100.00;101027.19;4994085;28;20049;-66
2021/09/07 04:31:36;;;;;;;15.10;12.13;;;;;;;14.77;100.00;101035.06;4993069;28;20053;-66
2021/09/07 04:34:20;;;;;;;16.23;12.73;;;;;;;14.76;100.00;101033.38;4994027;28;20061;-65
2021/09/07 04:37:03;;;;;;;17.48;12.93;;;;;;;14.75;100.00;101027.19;4994194;28;20531;-66
2021/09/07 04:39:50;;;;;;;18.13;12.60;;;;;;;14.76;100.00;101023.50;4994260;28;20101;-65
2021/09/07 04:42:34;;;;;;;17.30;11.85;;;;;;;14.76;100.00;101025.31;4992937;28;20053;-63
2021/09/07 04:45:18;;;;;;;15.80;12.48;;;;;;;14.76;100.00;101033.38;4992949;28;20052;-66
2021/09/07 04:48:02;;;;;;;15.27;12.00;;;;;;;14.76;100.00;101028.00;4993000;28;20101;-65
2021/09/07 04:50:46;;;;;;;14.63;11.75;;;;;;;14.75;100.00;101029.00;4992805;28;20128;-66
2021/09/07 04:53:30;;;;;;;13.82;11.75;;;;;;;14.75;100.00;101031.69;4992977;28;20065;-65
2021/09/07 04:56:15;;;;;;;17.30;12.80;;;;;;;14.75;100.00;101037.91;4993772;28;20112;-66
2021/09/07 04:58:59;;;;;;;19.17;13.63;;;;;;;14.78;100.00;101031.41;4979022;28;20126;-66
2021/09/07 05:01:43;;;;;;;17.88;14.35;;;;;;;14.80;100.00;101042.81;4992870;28;20053;-66
2021/09/07 05:04:27;;;;;;;20.92;14.65;;;;;;;14.81;100.00;101047.19;4992419;28;20049;-65
2021/09/07 05:07:10;;;;;;;20.00;14.45;;;;;;;14.86;100.00;101050.25;4978458;28;20504;-65
2021/09/07 05:09:55;;;;;;;20.92;13.95;;;;;;;14.89;100.00;101055.34;4993022;28;20092;-65
2021/09/07 05:12:39;;;;;;;20.25;13.90;;;;;;;14.92;100.00;101057.69;4992271;28;20416;-65
2021/09/07 05:15:23;;;;;;;19.02;13.93;;;;;;;14.95;100.00;101052.88;4978611;28;20053;-65
2021/09/07 05:18:07;;;;;;;18.08;13.95;;;;;;;15.03;100.00;101052.09;4992488;28;20417;-65
2021/09/07 05:20:50;;;;;;;20.92;13.80;;;;;;;15.11;100.00;101061.06;4979078;28;20125;-65
2021/09/07 05:23:34;;;;;;;16.60;13.23;;;;;;;15.17;100.00;101057.78;4993800;28;20054;-66
2021/09/07 05:26:18;;;;;;;17.30;12.80;;;;;;;15.25;100.00;101057.00;4993713;28;20081;-66
2021/09/07 05:29:02;;;;;;;17.38;13.80;;;;;;;15.33;100.00;101060.66;4992466;28;20045;-66
2021/09/07 05:31:46;;;;;;;17.75;13.00;;;;;;;15.40;100.00;101063.56;4978971;28;20093;-66
2021/09/07 05:34:30;;;;;;;15.85;11.70;;;;;;;15.47;100.00;101062.75;4978822;28;20057;-66
2021/09/07 05:37:14;;;;;;;15.20;12.25;;;;;;;15.54;100.00;101062.97;4992521;28;20053;-66
2021/09/07 05:39:59;;;;;;;16.88;12.45;;;;;;;15.58;100.00;101066.03;4978814;28;20194;-66
2021/09/07 05:42:43;;;;;;;15.18;11.75;;;;;;;15.66;100.00;101063.41;4992332;28;20097;-66
2021/09/07 05:45:27;;;;;;;16.17;12.68;;;;;;;15.71;100.00;101066.47;4992301;28;20102;-65
2021/09/07 05:48:11;;;;;;;20.02;13.43;;;;;;;15.77;100.00;101065.81;4993213;28;20433;-65
2021/09/07 05:50:55;;;;;;;17.25;13.25;;;;;;;15.89;100.00;101066.41;4992503;28;20508;-66
2021/09/07 05:53:40;;;;;;;20.35;13.27;;;;;;;15.97;100.00;101067.28;4978549;28;20565;-66
2021/09/07 05:56:24;;;;;;;19.65;12.77;;;;;;;16.07;100.00;101068.03;4993457;28;20050;-66
2021/09/07 05:59:08;;;;;;;19.88;12.95;;;;;;;16.16;100.00;101077.00;4992076;28;20049;-65
2021/09/07 06:01:52;;;;;;;18.13;13.23;;;;;;;16.28;100.00;101073.84;4993407;28;20496;-66
2021/09/07 06:04:36;;;;;;;19.02;14.25;;;;;;;16.37;100.00;101078.28;4993602;28;20512;-66
2021/09/07 06:07:20;;;;;;;18.02;12.93;;;;;;;16.51;100.00;101084.91;4992087;28;20548;-64
2021/09/07 06:10:04;;;;;;;18.58;13.10;;;;;;;16.61;100.00;101086.47;4993081;28;20042;-66
2021/09/07 06:12:48;;;;;;;19.27;13.40;;;;;;;16.73;100.00;101082.47;4978362;28;20050;-66
2021/09/07 06:15:32;;;;;;;19.05;13.48;;;;;;;16.81;100.00;101085.19;4994153;28;20405;-66
2021/09/07 06:18:17;;;;;;;19.90;14.00;;;;;;;16.83;100.00;101091.25;4996380;28;20076;-66
2021/09/07 06:21:01;;;;;;;17.30;12.70;;;;;;;16.91;100.00;101091.25;5009384;28;20433;-66
2021/09/07 06:23:45;;;;;;;21.15;13.68;;;;;;;17.01;100.00;101086.56;4995727;28;20088;-65
2021/09/07 06:26:29;;;;;;;17.83;12.43;;;;;;;17.09;100.00;101093.84;4996666;28;20045;-66
2021/09/07 06:29:13;;;;;;;19.27;12.77;;;;;;;17.17;100.00;101088.44;4995319;28;20049;-65
2021/09/07 06:31:57;;;;;;;17.42;13.32;;;;;;;17.28;100.00;101088.97;4981585;28;20130;-66
2021/09/07 06:34:41;;;;;;;17.73;12.73;;;;;;;17.40;100.00;101087.66;4996498;28;20108;-66
2021/09/07 06:37:24;;;;;;;18.63;13.20;;;;;;;17.47;100.00;101093.22;4995325;28;20092;-65
2021/09/07 06:40:09;;;;;;;24.88;13.02;;;;;;;17.61;100.00;101101.47;4996113;28;20469;-63
2021/09/07 06:42:55;;;;;;;15.02;12.25;;;;;;;17.65;100.00;101104.66;4995356;28;20105;-66
2021/09/07 06:45:39;;;;;;;20.45;13.48;;;;;;;17.71;100.00;101104.84;4995009;28;20049;-66
2021/09/07 06:48:23;;;;;;;14.63;11.85;;;;;;;17.82;100.00;101109.88;4981210;28;20049;-66
2021/09/07 06:51:07;;;;;;;19.00;13.35;;;;;;;17.80;100.00;101101.13;4996204;28;20108;-65
2021/09/07 06:53:51;;;;;;;18.50;13.30;;;;;;;17.90;100.00;101106.34;4995100;28;20548;-66
2021/09/07 06:56:35;;;;;;;17.58;13.48;;;;;;;18.00;100.00;101099.72;4995794;28;20050;-66
2021/09/07 06:59:19;;;;;;;22.40;13.23;;;;;;;18.18;98.67;101100.38;4994869;28;20049;-66
2021/09/07 07:02:03;;;;;;;22.23;12.25;;;;;;;18.29;97.47;101108.13;4995955;28;20046;-65
2021/09/07 07:04:47;;;;;;;26.02;13.05;;;;;;;18.29;98.11;101118.06;4994810;28;20089;-66
2021/09/07 07:07:31;;;;;;;23.48;12.52;;;;;;;18.36;98.36;101119.94;4995867;28;20049;-66
2021/09/07 07:10:15;;;;;;;17.13;12.95;;;;;;;18.50;96.58;101111.97;4994856;28;20504;-65
2021/09/07 07:12:59;;;;;;;20.48;13.02;;;;;;;18.45;96.78;101116.19;4994462;28;20575;-66
2021/09/07 07:15:42;;;;;;;15.95;12.75;;;;;;;18.61;95.49;101113.41;4994731;28;20148;-66
2021/09/07 07:18:27;;;;;;;;;;;;;;;18.85;93.07;101121.38;4994861;28;20188;-66
2021/09/07 07:21:11;;;;;;;19.33;13.10;;;;;;;19.01;91.57;101115.91;4995396;28;19921;-66
2021/09/07 07:23:56;;;;;;;;;;;;;;;19.07;90.93;101121.44;4994708;28;20049;-65
2021/09/07 07:26:39;;;;;;;;;;;;;;;19.16;90.17;101124.94;4994230;28;20298;-65
2021/09/07 07:29:23;;;;;;;18.08;12.48;;;;;;;19.51;87.83;101117.09;4994495;28;19920;-66
2021/09/07 07:32:08;;;;;;;17.60;13.52;;;;;;;19.70;85.72;101113.91;4995370;28;20077;-66
2021/09/07 07:34:52;;;;;;;19.15;13.90;;;;;;;19.48;86.19;101119.34;4994320;28;20112;-66
2021/09/07 07:37:36;;;;;;;20.65;14.63;;;;;;;19.60;85.68;101117.91;4995240;28;20053;-66
2021/09/07 07:40:20;;;;;;;18.23;14.65;;;;;;;19.67;85.82;101118.81;4994023;28;20108;-66
2021/09/07 07:43:05;;;;;;;24.15;15.13;;;;;;;19.90;84.07;101119.66;4995147;28;20077;-66
2021/09/07 07:45:49;;;;;;;18.45;13.70;;;;;;;20.04;83.25;101118.84;4994140;28;20093;-66
2021/09/07 07:48:33;;;;;;;20.85;14.68;;;;;;;20.31;81.59;101118.25;4994887;28;20088;-66
2021/09/07 07:51:17;;;;;;;20.02;14.02;;;;;;;20.38;79.83;101121.88;4993729;28;20057;-66
2021/09/07 07:54:02;;;;;;;22.63;13.45;;;;;;;20.70;79.18;101127.75;4980510;28;20057;-66
2021/09/07 07:56:46;;;;;;;22.65;13.27;;;;;;;20.91;77.76;101132.44;4993619;28;20049;-66
2021/09/07 07:59:30;;;;;;;16.77;12.90;;;;;;;21.10;75.47;101134.50;4994498;28;20069;-66
2021/09/07 08:02:14;;;;;;;15.95;13.60;;;;;;;20.88;76.31;101139.06;4994826;28;20065;-66
2021/09/07 08:04:57;;;;;;;19.42;13.27;;;;;;;21.17;76.34;101133.59;4994845;28;20564;-66
2021/09/07 08:07:41;;;;;;;16.85;13.05;;;;;;;21.38;74.08;101126.28;4993534;28;20077;-66
2021/09/07 08:10:25;;;;;;;20.25;13.18;;;;;;;21.24;74.30;101138.03;4993559;28;20049;-66
2021/09/07 08:13:09;;;;;;;;;;;;;;;21.39;74.53;101133.38;4993986;28;20173;-65
2021/09/07 08:15:53;;;;;;;20.60;12.93;;;;;;;21.72;72.94;101129.19;4994777;28;19976;-66
2021/09/07 08:18:37;;;;;;;;;;;;;;;22.06;72.28;101137.38;4993313;28;20073;-66
2021/09/07 08:21:21;;;;;;;14.90;11.98;;;;;;;22.35;71.05;101142.63;4994283;28;19976;-66
2021/09/07 08:24:05;;;;;;;20.83;12.68;;;;;;;22.56;69.90;101149.88;4979541;28;20193;-66
2021/09/07 08:26:48;;;;;;;;;;;;;;;22.53;69.74;101148.38;4994066;28;20413;-66
2021/09/07 08:29:32;;;;;;;16.17;11.57;;;;;;;22.84;68.72;101151.47;4994674;28;19920;-66
2021/09/07 08:32:17;;;;;;;13.98;10.70;;;;;;;23.01;67.38;101149.28;4994087;28;20292;-66
2021/09/07 08:35:01;;;;;;;15.20;10.32;;;;;;;23.11;66.89;101150.53;4993361;28;20511;-66
2021/09/07 08:37:45;;;;;;;16.85;11.50;;;;;;;23.27;66.04;101147.50;4992338;28;20053;-65
2021/09/07 08:40:29;;;;;;;16.30;11.73;;;;;;;23.37;66.00;101147.09;4994173;28;20073;-66
2021/09/07 08:43:13;;;;;;;17.00;11.07;;;;;;;23.56;65.84;101147.16;4993189;28;20052;-64
2021/09/07 08:45:57;;;;;;;;;;;;;;;23.50;63.45;101150.69;4993414;28;20596;-66
2021/09/07 08:48:41;;;;;;;16.45;11.60;;;;;;;23.89;62.51;101139.88;4993140;28;20391;-66
2021/09/07 08:51:25;;;;;;;19.38;11.68;;;;;;;24.01;63.07;101143.66;4994092;28;20041;-66
2021/09/07 08:54:09;;;;;;;14.85;11.82;;;;;;;24.27;62.01;101144.47;4994100;28;20104;-65
2021/09/07 08:56:53;;;;;;;18.15;11.25;;;;;;;24.48;60.08;101146.13;4993831;28;20132;-66
2021/09/07 08:59:37;;;;;;;;;;;;;;;24.76;59.25;101149.41;4994203;28;20108;-66
2021/09/07 09:02:22;;;;;;;17.90;11.20;;;;;;;25.06;58.12;101151.41;4993025;28;19921;-66
2021/09/07 09:05:06;;;;;;;13.73;10.55;;;;;;;25.17;56.51;101147.13;4992895;28;20049;-66
2021/09/07 09:07:50;;;;;;;19.80;11.70;;;;;;;25.17;55.05;101142.53;4992871;28;20053;-65
2021/09/07 09:10:34;;;;;;;;;;;;;;;25.15;55.61;101152.84;4994214;28;20087;-66
2021/09/07 09:13:18;;;;;;;14.10;11.48;;;;;;;25.02;56.06;101149.31;4992601;28;19967;-66
2021/09/07 09:16:03;;;;;;;;;;;;;;;25.06;56.09;101148.69;4994239;28;20080;-66
2021/09/07 09:18:47;;;;;;;16.55;10.77;;;;;;;25.28;55.83;101141.88;4993853;28;20415;-66
2021/09/07 09:21:32;;;;;;;14.85;10.90;;;;;;;25.51;56.48;101144.06;4992768;28;20049;-66
2021/09/07 09:24:22;;;;;;;14.90;11.63;;;;;;;25.62;55.67;101146.09;4992799;28;20053;-66
2021/09/07 09:27:07;;;;;;;23.63;12.13;;;;;;;25.94;54.37;101145.03;4992986;28;20108;-66
2021/09/07 09:29:54;;;;;;;19.05;12.43;;;;;;;26.03;53.05;101144.50;4992610;28;20537;-66
2021/09/07 09:32:48;;;;;;;18.98;12.80;;;;;;;26.17;52.15;101151.56;4992703;28;20485;-66
2021/09/07 09:35:43;;;;;;;16.98;13.45;;;;;;;26.19;51.00;101154.91;4992683;28;20053;-66
2021/09/07 09:38:29;;;;;;;15.93;12.43;;;;;;;26.61;50.68;101154.06;4992263;28;20053;-67
2021/09/07 09:41:13;;;;;;;18.38;12.63;;;;;;;27.33;50.14;101143.09;4992645;28;20515;-66
2021/09/07 09:44:05;;;;;;;;;;;;;;;28.09;47.16;101153.09;4992813;28;20512;-66
2021/09/07 09:46:49;;;;;;;17.77;13.02;;;;;;;29.30;44.06;101149.28;4992582;28;19920;-67
2021/09/07 09:49:33;;;;;;;;;;;;;;;30.48;42.19;101143.44;4979879;28;20096;-67
2021/09/07 09:52:16;;;;;;;17.98;12.32;;;;;;;32.06;38.54;101141.19;4996249;28;19964;-67
2021/09/07 09:55:02;;;;;;;22.00;13.27;;;;;;;33.53;35.42;101135.13;4996527;28;20417;-66
2021/09/07 09:57:46;;;;;;;17.55;12.55;;;;;;;34.75;33.05;101133.72;4995899;28;20049;-66
2021/09/07 10:00:31;;;;;;;14.38;11.18;;;;;;;35.68;31.81;101141.03;4996182;28;20057;-66
2021/09/07 10:03:15;;;;;;;15.52;11.90;;;;;;;36.53;31.01;101126.41;4982402;28;20150;-66
2021/09/07 10:06:00;;;;;;;16.83;12.60;;;;;;;36.68;30.22;101123.50;4995732;28;20075;-67
2021/09/07 10:08:44;;;;;;;19.77;13.52;;;;;;;36.90;29.39;101124.63;4996001;28;20113;-67
2021/09/07 10:11:30;;;;;;;19.38;13.50;;;;;;;37.67;27.99;101129.69;4996080;28;20080;-66
2021/09/07 10:14:16;;;;;;;19.75;12.60;;;;;;;38.24;27.15;101120.13;4995707;28;20087;-65
2021/09/07 10:17:43;;;;;;;15.57;12.45;;;;;;;38.47;26.71;101122.78;4995538;28;20061;-67
2021/09/07 10:20:54;;;;;;;17.77;11.80;;;;;;;39.11;25.76;101121.78;4943434;29;20058;-66
2021/09/07 10:23:41;;;;;;;16.98;11.40;;;;;;;39.22;25.84;101112.03;4995805;28;20142;-67
2021/09/07 10:26:37;;;;;;;15.32;12.10;;;;;;;39.93;24.93;101110.91;4996592;28;20165;-66
2021/09/07 10:29:30;;;;;;;19.50;12.88;;;;;;;40.11;24.19;101104.28;4996109;28;20078;-66
2021/09/07 10:32:21;;;;;;;;;;;;;;;39.68;24.42;101108.72;4995985;28;20089;-67
2021/09/07 10:35:12;;;;;;;14.25;12.32;;;;;;;40.69;23.92;101095.75;4995457;28;19960;-67
2021/09/07 10:38:11;;;;;;;14.55;11.18;;;;;;;40.87;23.74;101098.25;4995327;28;20185;-66
2021/09/07 10:40:55;;;;;;;15.70;11.32;;;;;;;40.30;23.74;101093.72;4996910;28;20101;-67
2021/09/07 10:43:55;;;;;;;16.63;11.60;;;;;;;40.57;23.41;101087.97;4995318;28;20045;-67
2021/09/07 10:46:48;;;;;;;13.32;11.20;;;;;;;40.52;23.96;101085.28;4996303;28;20405;-65
2021/09/07 10:49:32;;;;;;;12.37;11.07;;;;;;;40.39;23.92;101086.19;4996046;28;20057;-67
2021/09/07 10:52:27;;;;;;;12.77;10.25;;;;;;;40.91;23.99;101088.09;4996213;28;20053;-66
2021/09/07 10:55:15;;;;;;;12.68;10.13;;;;;;;41.42;23.01;101081.78;4995844;28;20080;-66
2021/09/07 10:58:02;;;;;;;12.55;10.40;;;;;;;41.45;22.24;101076.34;4994934;28;20484;-66
2021/09/07 11:00:46;;;;;;;13.70;10.55;;;;;;;41.82;22.03;101067.25;4994422;28;20500;-66
2021/09/07 11:03:30;;;;;;;13.50;9.98;;;;;;;42.10;21.37;101070.47;4995996;28;20088;-66
2021/09/07 11:06:39;;;;;;;14.60;10.18;;;;;;;42.43;20.69;101061.16;4995985;28;20049;-67
2021/09/07 11:09:48;;;;;;;11.05;9.73;;;;;;;43.04;20.42;101060.53;4995894;28;20520;-66
2021/09/07 11:12:33;;;;;;;12.85;9.90;;;;;;;43.04;20.51;101064.19;4994693;28;20057;-66
2021/09/07 11:15:22;;;;;;;13.40;9.70;;;;;;;43.26;20.05;101066.66;4994803;28;20408;-67
2021/09/07 11:18:12;;;;;;;10.77;9.43;;;;;;;43.41;19.96;101062.44;4994628;28;20052;-67
2021/09/07 11:20:58;;;;;;;18.13;9.82;;;;;;;43.92;19.76;101047.91;4994412;28;20196;-66
2021/09/07 11:23:42;;;;;;;10.70;8.95;;;;;;;43.91;19.18;101049.09;4995567;28;20054;-67
2021/09/07 11:26:27;;;;;;;13.55;9.55;;;;;;;43.75;19.96;101048.91;4995485;28;20500;-67
2021/09/07 11:29:11;;;;;;;10.60;9.50;;;;;;;43.74;19.82;101043.63;4995110;28;20130;-67
2021/09/07 11:31:55;;;;;;;11.52;9.60;;;;;;;44.03;19.64;101037.88;4995158;28;20126;-67
2021/09/07 11:34:39;;;;;;;13.77;9.40;;;;;;;44.29;19.49;101035.56;4994363;28;20470;-67
2021/09/07 11:37:23;;;;;;;11.00;9.57;;;;;;;44.41;18.71;101036.41;4995237;28;20164;-67
2021/09/07 11:40:16;;;;;;;11.57;9.95;;;;;;;44.46;18.83;101026.94;4994958;28;20053;-67
2021/09/07 11:43:01;;;;;;;10.98;9.60;;;;;;;44.34;18.99;101026.91;4995250;28;20404;-67
2021/09/07 11:45:45;;;;;;;10.60;9.13;;;;;;;44.45;18.70;101023.31;4980509;28;20053;-67
2021/09/07 11:48:29;;;;;;;10.70;9.60;;;;;;;44.55;18.89;101024.84;4995059;28;20064;-66
2021/09/07 11:51:25;;;;;;;10.38;9.05;;;;;;;44.65;17.93;101027.19;4994041;28;20049;-66
2021/09/07 11:54:10;;;;;;;13.68;9.13;;;;;;;44.61;18.36;101020.59;4994049;28;20045;-67
2021/09/07 11:56:57;;;;;;;10.73;9.73;;;;;;;44.72;18.69;101021.75;4993673;28;20134;-67
2021/09/07 11:59:58;;;;;;;14.20;9.63;;;;;;;44.00;18.50;101014.06;4994670;28;20126;-66
2021/09/07 12:02:42;;;;;;;10.02;9.02;;;;;;;43.64;19.23;101018.75;4994911;28;20048;-67
2021/09/07 12:05:50;;;;;;;9.88;8.90;;;;;;;43.87;18.64;101009.63;4979847;28;20049;-67
2021/09/07 12:08:39;;;;;;;9.43;8.63;;;;;;;44.07;19.00;101013.53;4993451;28;20173;-67
2021/09/07 12:11:31;;;;;;;11.63;9.57;;;;;;;44.35;18.19;101003.25;4980229;28;20053;-64
2021/09/07 12:14:22;;;;;;;9.95;8.85;;;;;;;44.06;18.94;101004.28;4993445;28;20053;-66
2021/09/07 12:17:08;;;;;;;10.77;9.20;;;;;;;43.56;19.55;100997.19;4994401;28;20104;-67
2021/09/07 12:19:52;;;;;;;13.73;9.00;;;;;;;43.63;19.01;100994.66;4979747;28;20397;-67
2021/09/07 12:22:40;;;;;;;13.85;9.90;;;;;;;43.05;19.49;100994.84;4993649;28;20053;-66
2021/09/07 12:25:24;;;;;;;14.27;9.05;;;;;;;43.27;19.36;100994.47;4993501;28;20049;-65
2021/09/07 12:28:16;;;;;;;10.57;9.48;;;;;;;41.96;20.17;100980.22;4994369;28;20097;-67
2021/09/07 12:31:19;;;;;;;14.07;9.27;;;;;;;41.64;20.86;100989.19;4993143;28;20041;-66